createdAt,value
2018-06-09T00:01:40.121Z,97.73
2018-06-09T00:04:09.089Z,92.53
2018-06-09T00:06:38.057Z,79.40
2018-06-09T00:09:07.780Z,75.00
2018-06-09T00:11:36.770Z,81.93
2018-06-09T00:14:05.729Z,89.20
2018-06-09T00:16:34.472Z,81.50
2018-06-09T00:19:03.461Z,87.87
2018-06-09T00:21:32.475Z,88.43
2018-06-09T00:24:01.482Z,94.20
2018-06-09T00:26:30.393Z,78.57
2018-06-09T00:28:59.445Z,91.53
2018-06-09T00:31:31.714Z,92.43
2018-06-09T00:34:00.689Z,80.90
2018-06-09T00:36:29.698Z,99.57
2018-06-09T00:38:58.655Z,88.33
2018-06-09T00:41:27.616Z,84.93
2018-06-09T00:43:56.598Z,93.13
2018-06-09T00:46:25.591Z,86.50
2018-06-09T00:48:54.552Z,94.50
2018-06-09T00:51:23.508Z,88.13
2018-06-09T00:53:52.558Z,102.90
2018-06-09T00:56:26.931Z,89.03
2018-06-09T00:58:55.786Z,91.07
2018-06-09T01:01:24.764Z,90.53
2018-06-09T01:03:53.512Z,89.53
2018-06-09T01:06:22.323Z,81.73
2018-06-09T01:08:51.219Z,94.83
2018-06-09T01:11:20.117Z,97.53
2018-06-09T01:13:49.110Z,95.57
2018-06-09T01:16:17.848Z,97.97
2018-06-09T01:18:46.686Z,93.77
2018-06-09T01:21:15.668Z,85.23
2018-06-09T01:23:44.636Z,94.23
2018-06-09T01:26:13.553Z,90.23
2018-06-09T01:28:42.585Z,85.53
2018-06-09T01:31:11.524Z,85.47
2018-06-09T01:33:40.736Z,90.97
2018-06-09T01:36:09.699Z,88.40
2018-06-09T01:38:38.701Z,82.70
2018-06-09T01:41:07.701Z,79.17
2018-06-09T01:43:36.634Z,84.87
2018-06-09T01:46:05.674Z,75.83
2018-06-09T01:48:34.620Z,80.93
2018-06-09T01:51:03.564Z,77.00
2018-06-09T01:53:32.478Z,77.23
2018-06-09T01:56:01.421Z,87.07
2018-06-09T01:58:30.589Z,81.03
2018-06-09T02:00:59.526Z,77.73
2018-06-09T02:03:28.457Z,77.77
2018-06-09T02:05:57.485Z,70.40
2018-06-09T02:08:26.489Z,75.07
2018-06-09T02:10:55.507Z,78.07
2018-06-09T02:13:24.468Z,75.33
2018-06-09T02:15:53.444Z,72.43
2018-06-09T02:18:22.393Z,71.50
2018-06-09T02:20:51.349Z,71.10
2018-06-09T02:23:20.366Z,74.90
2018-06-09T02:25:49.296Z,85.83
2018-06-09T02:28:18.321Z,71.67
2018-06-09T02:30:47.314Z,79.70
2018-06-09T02:33:16.265Z,76.57
2018-06-09T02:35:45.272Z,69.87
2018-06-09T02:38:14.201Z,76.33
2018-06-09T02:40:43.138Z,71.10
2018-06-09T02:43:12.109Z,73.93
2018-06-09T02:45:41.042Z,74.43
2018-06-09T02:48:10.057Z,64.77
2018-06-09T02:50:39.040Z,80.83
2018-06-09T02:53:08.201Z,65.87
2018-06-09T02:55:37.143Z,67.70
2018-06-09T02:58:05.921Z,61.17
2018-06-09T03:00:34.761Z,66.87
2018-06-09T03:03:03.710Z,57.10
2018-06-09T03:05:32.741Z,67.10
2018-06-09T03:08:01.774Z,61.70
2018-06-09T03:10:30.726Z,63.23
2018-06-09T03:12:59.710Z,58.23
2018-06-09T03:15:28.648Z,70.23
2018-06-09T03:17:57.607Z,62.17
2018-06-09T03:20:26.977Z,62.63
2018-06-09T03:22:55.908Z,62.93
2018-06-09T03:25:24.953Z,57.30
2018-06-09T03:27:53.996Z,60.77
2018-06-09T03:30:22.949Z,59.40
2018-06-09T03:32:51.904Z,60.30
2018-06-09T03:35:20.639Z,56.37
2018-06-09T03:37:49.433Z,56.80
2018-06-09T03:40:18.609Z,60.57
2018-06-09T03:42:47.534Z,58.23
2018-06-09T03:45:16.552Z,53.30
2018-06-09T03:47:46.036Z,53.20
2018-06-09T03:50:14.980Z,65.13
2018-06-09T03:52:43.914Z,57.43
2018-06-09T03:55:12.865Z,68.17
2018-06-09T03:57:41.866Z,52.57
2018-06-09T04:00:10.805Z,58.37
2018-06-09T04:02:39.757Z,52.53
2018-06-09T04:05:08.695Z,51.67
2018-06-09T04:07:37.715Z,49.77
2018-06-09T04:10:06.685Z,54.27
2018-06-09T04:12:35.637Z,51.43
2018-06-09T04:15:04.595Z,53.77
2018-06-09T04:17:33.532Z,47.03
2018-06-09T04:20:02.489Z,48.27
2018-06-09T04:22:31.439Z,46.70
2018-06-09T04:25:00.441Z,46.87
2018-06-09T04:27:29.108Z,52.60
2018-06-09T04:29:57.937Z,49.17
2018-06-09T04:32:26.867Z,52.53
2018-06-09T04:34:55.830Z,46.27
2018-06-09T04:37:24.787Z,45.93
2018-06-09T04:39:53.778Z,45.53
2018-06-09T04:42:22.839Z,54.57
2018-06-09T04:44:51.824Z,50.47
2018-06-09T04:47:20.755Z,46.30
2018-06-09T04:49:49.725Z,43.87
2018-06-09T04:52:18.699Z,54.73
2018-06-09T04:54:47.615Z,42.50
2018-06-09T04:57:16.665Z,46.57
2018-06-09T04:59:45.603Z,50.03
2018-06-09T05:02:14.557Z,43.70
2018-06-09T05:04:43.513Z,45.43
2018-06-09T05:07:12.482Z,45.80
2018-06-09T05:09:41.501Z,45.17
2018-06-09T05:12:10.584Z,42.00
2018-06-09T05:14:39.577Z,41.27
2018-06-09T05:17:08.489Z,43.63
2018-06-09T05:19:37.428Z,40.53
2018-06-09T05:22:06.415Z,40.20
2018-06-09T05:24:35.391Z,50.83
2018-06-09T05:27:04.322Z,40.73
2018-06-09T05:29:33.286Z,46.10
2018-06-09T05:32:02.229Z,42.17
2018-06-09T05:34:31.482Z,40.40
2018-06-09T05:37:00.444Z,43.07
2018-06-09T05:39:29.448Z,40.37
2018-06-09T05:41:58.369Z,36.57
2018-06-09T05:44:27.285Z,41.00
2018-06-09T05:46:56.229Z,45.00
2018-06-09T05:49:25.008Z,38.50
2018-06-09T05:51:53.852Z,42.50
2018-06-09T05:54:22.916Z,40.90
2018-06-09T05:56:51.841Z,36.90
2018-06-09T05:59:20.911Z,39.63
2018-06-09T06:01:50.084Z,38.30
2018-06-09T06:04:19.014Z,49.63
2018-06-09T06:06:47.984Z,45.03
2018-06-09T06:09:17.065Z,41.93
2018-06-09T06:11:46.097Z,37.93
2018-06-09T06:14:15.106Z,41.90
2018-06-09T06:16:44.203Z,36.70
2018-06-09T06:19:13.209Z,44.87
2018-06-09T06:21:42.321Z,39.30
2018-06-09T06:24:11.086Z,40.83
2018-06-09T06:26:39.945Z,40.00
2018-06-09T06:29:08.965Z,36.63
2018-06-09T06:31:38.092Z,34.43
2018-06-09T06:34:07.048Z,33.77
2018-06-09T06:36:35.830Z,32.43
2018-06-09T06:39:08.011Z,37.33
2018-06-09T06:41:36.804Z,41.47
2018-06-09T06:44:05.448Z,32.47
2018-06-09T06:46:34.345Z,35.43
2018-06-09T06:49:03.337Z,38.60
2018-06-09T06:51:32.435Z,43.20
2018-06-09T06:54:01.607Z,37.80
2018-06-09T06:56:30.852Z,37.93
2018-06-09T06:58:59.772Z,33.80
2018-06-09T07:01:28.709Z,39.00
2018-06-09T07:03:57.657Z,36.27
2018-06-09T07:06:26.589Z,30.80
2018-06-09T07:08:55.586Z,34.67
2018-06-09T07:11:24.526Z,35.10
2018-06-09T07:13:53.477Z,34.83
2018-06-09T07:16:22.497Z,31.80
2018-06-09T07:18:51.482Z,34.27
2018-06-09T07:21:20.490Z,29.87
2018-06-09T07:23:49.432Z,42.63
2018-06-09T07:26:18.454Z,35.43
2018-06-09T07:28:47.402Z,36.77
2018-06-09T07:31:17.434Z,35.60
2018-06-09T07:33:46.381Z,37.33
2018-06-09T07:36:15.365Z,36.57
2018-06-09T07:38:44.318Z,36.10
2018-06-09T07:41:13.293Z,36.23
2018-06-09T07:43:42.238Z,40.07
2018-06-09T07:46:11.203Z,35.50
2018-06-09T07:48:40.230Z,35.33
2018-06-09T07:51:09.317Z,35.10
2018-06-09T07:53:37.975Z,41.50
2018-06-09T07:56:06.874Z,43.93
2018-06-09T07:58:35.588Z,45.23
2018-06-09T08:01:04.479Z,39.10
2018-06-09T08:03:33.415Z,40.30
2018-06-09T08:06:02.151Z,31.37
2018-06-09T08:08:30.996Z,39.97
2018-06-09T08:10:59.922Z,34.30
2018-06-09T08:13:28.914Z,39.83
2018-06-09T08:15:58.009Z,36.73
2018-06-09T08:18:26.959Z,38.43
2018-06-09T08:20:55.889Z,33.50
2018-06-09T08:23:24.902Z,35.60
2018-06-09T08:25:53.808Z,34.03
2018-06-09T08:28:22.749Z,33.10
2018-06-09T08:30:51.685Z,31.43
2018-06-09T08:33:20.658Z,34.17
2018-06-09T08:35:49.594Z,30.37
2018-06-09T08:38:18.525Z,32.47
2018-06-09T08:40:48.610Z,35.77
2018-06-09T08:43:19.637Z,38.43
2018-06-09T08:45:50.702Z,34.10
2018-06-09T08:48:21.549Z,34.90
2018-06-09T08:50:54.757Z,38.93
2018-06-09T08:53:28.097Z,30.17
2018-06-09T08:56:00.291Z,33.70
2018-06-09T08:58:32.458Z,32.40
2018-06-09T09:01:03.293Z,30.77
2018-06-09T09:03:34.945Z,37.90
2018-06-09T09:06:07.307Z,36.60
2018-06-09T09:08:38.559Z,37.33
2018-06-09T09:11:10.262Z,36.60
2018-06-09T09:13:41.519Z,35.67
2018-06-09T09:16:12.277Z,33.47
2018-06-09T09:18:43.953Z,37.20
2018-06-09T09:21:15.330Z,39.20
2018-06-09T09:23:47.465Z,38.07
2018-06-09T09:26:18.605Z,28.10
2018-06-09T09:28:52.409Z,32.87
2018-06-09T09:31:24.273Z,31.23
2018-06-09T09:33:55.820Z,32.20
2018-06-09T09:36:27.584Z,35.07
2018-06-09T09:39:01.075Z,31.97
2018-06-09T09:41:33.621Z,39.43
2018-06-09T09:44:05.714Z,35.40
2018-06-09T09:46:37.165Z,30.00
2018-06-09T09:49:06.313Z,28.60
2018-06-09T09:51:35.307Z,30.50
2018-06-09T09:54:03.985Z,30.67
2018-06-09T09:56:33.104Z,26.30
2018-06-09T09:59:02.233Z,28.70
2018-06-09T10:01:31.158Z,31.80
2018-06-09T10:04:00.118Z,30.60
2018-06-09T10:06:29.144Z,29.93
2018-06-09T10:08:58.737Z,36.50
2018-06-09T10:11:27.766Z,34.53
2018-06-09T10:13:56.677Z,29.67
2018-06-09T10:16:25.684Z,32.73
2018-06-09T10:18:54.718Z,32.20
2018-06-09T10:21:23.663Z,27.37
2018-06-09T10:23:52.630Z,31.67
2018-06-09T10:26:21.602Z,30.73
2018-06-09T10:28:50.564Z,29.07
2018-06-09T10:31:19.572Z,29.60
2018-06-09T10:33:48.762Z,31.73
2018-06-09T10:36:17.732Z,29.63
2018-06-09T10:38:46.693Z,29.63
2018-06-09T10:41:15.657Z,31.00
2018-06-09T10:43:44.606Z,31.07
2018-06-09T10:46:13.550Z,36.70
2018-06-09T10:48:42.532Z,32.47
2018-06-09T10:51:13.198Z,33.93
2018-06-09T10:53:42.148Z,33.17
2018-06-09T10:56:11.065Z,32.50
2018-06-09T10:58:40.022Z,32.20
2018-06-09T11:01:08.968Z,31.10
2018-06-09T11:03:39.081Z,36.20
2018-06-09T11:06:08.067Z,35.53
2018-06-09T11:08:36.977Z,29.00
2018-06-09T11:11:05.919Z,29.13
2018-06-09T11:13:34.881Z,30.37
2018-06-09T11:16:03.867Z,35.50
2018-06-09T11:18:32.814Z,32.50
2018-06-09T11:21:01.746Z,31.47
2018-06-09T11:23:30.758Z,31.90
2018-06-09T11:25:59.721Z,31.33
2018-06-09T11:28:28.678Z,28.90
2018-06-09T11:30:57.628Z,28.90
2018-06-09T11:33:27.222Z,30.53
2018-06-09T11:35:56.133Z,30.70
2018-06-09T11:38:25.069Z,28.00
2018-06-09T11:40:53.990Z,29.43
2018-06-09T11:43:22.948Z,28.03
2018-06-09T11:45:51.861Z,28.40
2018-06-09T11:48:20.807Z,28.30
2018-06-09T11:50:49.705Z,26.47
2018-06-09T11:53:18.792Z,25.23
2018-06-09T11:55:47.757Z,26.73
2018-06-09T11:58:16.709Z,27.20
2018-06-09T12:00:45.669Z,30.20
2018-06-09T12:03:14.682Z,29.23
2018-06-09T12:05:43.755Z,34.07
2018-06-09T12:08:12.669Z,29.53
2018-06-09T12:10:41.591Z,29.33
2018-06-09T12:13:10.909Z,27.87
2018-06-09T12:15:39.874Z,29.57
2018-06-09T12:18:08.805Z,28.50
2018-06-09T12:20:37.826Z,34.20
2018-06-09T12:23:06.994Z,31.13
2018-06-09T12:25:36.199Z,27.53
2018-06-09T12:28:05.233Z,28.77
2018-06-09T12:30:34.238Z,28.07
2018-06-09T12:33:03.608Z,27.47
2018-06-09T12:35:33.127Z,30.90
2018-06-09T12:38:02.477Z,27.20
2018-06-09T12:40:31.518Z,35.13
2018-06-09T12:43:00.450Z,34.77
2018-06-09T12:45:29.378Z,30.87
2018-06-09T12:47:58.328Z,26.00
2018-06-09T12:50:26.994Z,27.30
2018-06-09T12:52:55.854Z,27.90
2018-06-09T12:55:25.117Z,26.00
2018-06-09T12:57:54.243Z,29.80
2018-06-09T13:00:23.196Z,27.40
2018-06-09T13:02:52.323Z,31.73
2018-06-09T13:05:21.420Z,32.83
2018-06-09T13:07:50.464Z,33.90
2018-06-09T13:10:19.485Z,32.03
2018-06-09T13:12:48.554Z,26.03
2018-06-09T13:15:17.596Z,32.80
2018-06-09T13:17:46.599Z,28.10
2018-06-09T13:20:15.583Z,28.63
2018-06-09T13:22:44.556Z,26.37
2018-06-09T13:25:13.486Z,31.07
2018-06-09T13:27:42.773Z,29.53
2018-06-09T13:30:11.701Z,29.77
2018-06-09T13:32:40.662Z,30.90
2018-06-09T13:35:09.609Z,28.80
2018-06-09T13:37:38.769Z,26.83
2018-06-09T13:40:07.734Z,28.43
2018-06-09T13:42:36.671Z,28.80
2018-06-09T13:45:05.618Z,32.13
2018-06-09T13:47:34.341Z,25.57
2018-06-09T13:50:03.166Z,33.93
2018-06-09T13:52:32.288Z,26.83
2018-06-09T13:55:00.977Z,24.07
2018-06-09T13:57:29.793Z,30.00
2018-06-09T13:59:58.751Z,30.40
2018-06-09T14:02:27.762Z,31.80
2018-06-09T14:04:56.702Z,26.57
2018-06-09T14:07:25.617Z,32.73
2018-06-09T14:09:54.581Z,27.43
2018-06-09T14:12:23.517Z,26.93
2018-06-09T14:14:52.723Z,23.90
2018-06-09T14:17:21.700Z,32.50
2018-06-09T14:19:50.635Z,26.43
2018-06-09T14:22:19.573Z,26.43
2018-06-09T14:24:48.600Z,24.77
2018-06-09T14:27:17.530Z,24.47
2018-06-09T14:29:47.322Z,21.97
2018-06-09T14:32:16.281Z,23.70
2018-06-09T14:34:45.198Z,27.73
2018-06-09T14:37:14.146Z,25.43
2018-06-09T14:39:43.098Z,24.20
2018-06-09T14:42:12.126Z,25.90
2018-06-09T14:44:41.079Z,23.60
2018-06-09T14:47:10.092Z,28.17
2018-06-09T14:49:39.019Z,23.63
2018-06-09T14:52:07.970Z,28.93
2018-06-09T14:54:36.916Z,24.40
2018-06-09T14:57:05.902Z,25.40
2018-06-09T14:59:35.062Z,26.50
2018-06-09T15:02:04.070Z,26.30
2018-06-09T15:04:32.801Z,26.13
2018-06-09T15:07:01.640Z,23.40
2018-06-09T15:09:30.545Z,26.57
2018-06-09T15:11:59.509Z,26.20
2018-06-09T15:14:28.484Z,24.93
2018-06-09T15:16:57.413Z,24.63
2018-06-09T15:19:26.423Z,23.07
2018-06-09T15:21:55.408Z,25.33
2018-06-09T15:24:24.333Z,31.97
2018-06-09T15:26:53.302Z,26.20
2018-06-09T15:29:22.285Z,26.40
2018-06-09T15:31:51.218Z,25.23
2018-06-09T15:34:20.236Z,25.00
2018-06-09T15:36:49.318Z,31.37
2018-06-09T15:39:18.250Z,26.70
2018-06-09T15:41:47.292Z,29.60
2018-06-09T15:44:16.607Z,25.40
2018-06-09T15:46:45.553Z,22.03
2018-06-09T15:49:14.561Z,27.17
2018-06-09T15:51:43.657Z,25.73
2018-06-09T15:54:12.597Z,25.77
2018-06-09T15:56:42.578Z,24.10
2018-06-09T15:59:11.509Z,26.40
2018-06-09T16:01:40.637Z,28.00
2018-06-09T16:04:09.572Z,27.90
2018-06-09T16:06:38.516Z,28.40
2018-06-09T16:09:08.050Z,26.27
2018-06-09T16:11:36.925Z,27.37
2018-06-09T16:14:05.666Z,25.27
2018-06-09T16:16:34.472Z,23.60
2018-06-09T16:19:03.453Z,26.83
2018-06-09T16:21:32.555Z,20.30
2018-06-09T16:24:01.481Z,28.80
2018-06-09T16:26:30.418Z,24.10
2018-06-09T16:28:59.329Z,25.80
2018-06-09T16:31:28.277Z,31.70
2018-06-09T16:33:57.210Z,22.70
2018-06-09T16:36:26.453Z,23.17
2018-06-09T16:38:55.439Z,22.77
2018-06-09T16:41:24.576Z,25.77
2018-06-09T16:43:53.532Z,22.77
2018-06-09T16:46:22.488Z,21.77
2018-06-09T16:48:51.458Z,31.63
2018-06-09T16:51:20.980Z,25.47
2018-06-09T16:53:49.963Z,21.70
2018-06-09T16:56:18.920Z,19.13
2018-06-09T16:58:47.941Z,24.90
2018-06-09T17:01:16.896Z,20.23
2018-06-09T17:03:45.826Z,20.80
2018-06-09T17:06:14.764Z,22.37
2018-06-09T17:08:43.705Z,20.33
2018-06-09T17:11:12.630Z,21.87
2018-06-09T17:13:41.593Z,25.33
2018-06-09T17:16:10.620Z,24.07
2018-06-09T17:18:39.508Z,23.87
2018-06-09T17:21:08.577Z,23.13
2018-06-09T17:23:37.521Z,18.93
2018-06-09T17:26:06.466Z,27.53
2018-06-09T17:28:35.420Z,27.80
2018-06-09T17:31:04.394Z,22.27
2018-06-09T17:33:33.357Z,20.27
2018-06-09T17:36:02.321Z,23.93
2018-06-09T17:38:31.300Z,21.13
2018-06-09T17:41:00.201Z,45.10
2018-06-09T17:43:29.155Z,24.10
2018-06-09T17:45:58.105Z,27.07
2018-06-09T17:48:27.021Z,21.37
2018-06-09T17:50:55.970Z,26.43
2018-06-09T17:53:24.929Z,24.33
2018-06-09T17:55:53.943Z,21.43
2018-06-09T17:58:23.001Z,27.10
2018-06-09T18:00:52.006Z,26.90
2018-06-09T18:03:20.850Z,35.77
2018-06-09T18:05:50.094Z,27.60
2018-06-09T18:08:19.029Z,27.77
2018-06-09T18:10:48.212Z,53.80
2018-06-09T18:13:16.977Z,24.13
2018-06-09T18:15:45.805Z,26.60
2018-06-09T18:18:14.799Z,18.77
2018-06-09T18:20:43.733Z,21.63
2018-06-09T18:23:12.679Z,24.40
2018-06-09T18:25:41.617Z,19.20
2018-06-09T18:28:10.529Z,19.90
2018-06-09T18:30:39.502Z,18.57
2018-06-09T18:33:08.450Z,22.10
2018-06-09T18:35:37.414Z,23.07
2018-06-09T18:38:06.390Z,24.70
2018-06-09T18:40:35.341Z,26.03
2018-06-09T18:43:04.285Z,26.27
2018-06-09T18:45:33.205Z,28.13
2018-06-09T18:48:02.178Z,21.27
2018-06-09T18:50:31.153Z,21.40
2018-06-09T18:53:00.086Z,24.83
2018-06-09T18:55:29.039Z,23.37
2018-06-09T18:57:57.852Z,18.90
2018-06-09T19:00:26.663Z,19.67
2018-06-09T19:02:55.610Z,23.90
2018-06-09T19:05:24.589Z,14.90
2018-06-09T19:07:53.543Z,18.90
2018-06-09T19:10:22.642Z,19.23
2018-06-09T19:12:51.592Z,26.63
2018-06-09T19:15:20.584Z,24.20
2018-06-09T19:17:49.648Z,23.63
2018-06-09T19:20:18.610Z,17.63
2018-06-09T19:22:47.568Z,25.43
2018-06-09T19:25:16.539Z,17.90
2018-06-09T19:27:45.465Z,20.23
2018-06-09T19:30:14.605Z,15.00
2018-06-09T19:32:43.533Z,17.57
2018-06-09T19:35:12.581Z,19.93
2018-06-09T19:37:41.517Z,16.57
2018-06-09T19:40:10.458Z,19.00
2018-06-09T19:42:39.401Z,22.40
2018-06-09T19:45:08.362Z,20.10
2018-06-09T19:47:37.382Z,23.83
2018-06-09T19:50:06.746Z,19.93
2018-06-09T19:52:35.678Z,19.10
2018-06-09T19:55:04.651Z,22.73
2018-06-09T19:57:33.613Z,21.57
2018-06-09T20:00:02.579Z,20.37
2018-06-09T20:02:31.511Z,22.07
2018-06-09T20:05:00.461Z,23.80
2018-06-09T20:07:29.422Z,26.03
2018-06-09T20:09:58.371Z,19.73
2018-06-09T20:12:27.306Z,28.13
2018-06-09T20:14:56.381Z,24.83
2018-06-09T20:17:25.362Z,22.10
2018-06-09T20:19:54.291Z,28.13
2018-06-09T20:22:23.273Z,24.13
2018-06-09T20:24:52.250Z,24.00
2018-06-09T20:27:21.193Z,22.87
2018-06-09T20:29:49.894Z,25.03
2018-06-09T20:32:18.729Z,28.80
2018-06-09T20:34:47.680Z,25.60
2018-06-09T20:37:16.618Z,22.17
2018-06-09T20:39:45.392Z,21.33
2018-06-09T20:42:14.190Z,24.37
2018-06-09T20:44:43.157Z,25.47
2018-06-09T20:47:12.093Z,28.13
2018-06-09T20:49:41.044Z,28.60
2018-06-09T20:52:10.006Z,26.77
2018-06-09T20:54:38.971Z,30.87
2018-06-09T20:57:09.317Z,29.67
2018-06-09T20:59:38.276Z,29.87
2018-06-09T21:02:07.218Z,25.30
2018-06-09T21:04:36.165Z,24.13
2018-06-09T21:07:05.093Z,27.40
2018-06-09T21:09:33.901Z,23.03
2018-06-09T21:12:03.256Z,24.43
2018-06-09T21:14:32.189Z,24.20
2018-06-09T21:17:01.118Z,28.97
2018-06-09T21:19:30.101Z,22.23
2018-06-09T21:21:59.584Z,26.13
2018-06-09T21:24:28.466Z,25.50
2018-06-09T21:27:02.677Z,24.00
2018-06-09T21:29:34.138Z,27.63
2018-06-09T21:32:10.101Z,34.73
2018-06-09T21:34:55.930Z,26.70
2018-06-09T21:37:30.171Z,25.10
2018-06-09T21:40:04.798Z,24.17
2018-06-09T21:42:35.158Z,23.83
2018-06-09T21:45:08.121Z,31.30
2018-06-09T21:47:37.067Z,28.23
2018-06-09T21:50:06.051Z,24.40
2018-06-09T21:52:35.008Z,20.10
2018-06-09T21:55:03.966Z,24.00
2018-06-09T21:57:32.928Z,22.53
2018-06-09T22:00:01.930Z,29.30
2018-06-09T22:02:30.926Z,20.13
2018-06-09T22:04:59.869Z,26.47
2018-06-09T22:07:28.837Z,22.30
2018-06-09T22:09:57.749Z,21.90
2018-06-09T22:12:26.709Z,25.53
2018-06-09T22:14:55.634Z,26.47
2018-06-09T22:17:24.563Z,20.40
2018-06-09T22:19:53.504Z,19.07
2018-06-09T22:22:22.437Z,20.10
2018-06-09T22:24:51.343Z,22.73
2018-06-09T22:27:20.298Z,25.87
2018-06-09T22:29:49.241Z,28.73
2018-06-09T22:32:18.190Z,18.87
2018-06-09T22:34:47.124Z,24.97
2018-06-09T22:37:16.057Z,31.07
2018-06-09T22:39:45.874Z,20.93
2018-06-09T22:42:15.809Z,21.40
2018-06-09T22:44:46.154Z,20.83
2018-06-09T22:47:15.094Z,23.93
2018-06-09T22:49:44.027Z,22.77
2018-06-09T22:52:12.953Z,21.83
2018-06-09T22:54:41.910Z,22.50
2018-06-09T22:57:10.765Z,24.33
2018-06-09T22:59:39.716Z,20.30
2018-06-09T23:02:08.731Z,25.23
2018-06-09T23:04:37.878Z,18.10
2018-06-09T23:07:06.826Z,23.33
2018-06-09T23:09:35.782Z,26.70
2018-06-09T23:12:05.235Z,22.30
2018-06-09T23:14:34.156Z,25.97
2018-06-09T23:17:03.314Z,24.00
2018-06-09T23:19:32.306Z,21.60
2018-06-09T23:22:01.253Z,20.97
2018-06-09T23:24:30.178Z,23.27
2018-06-09T23:27:00.163Z,18.03
2018-06-09T23:29:29.110Z,30.50
2018-06-09T23:31:58.147Z,23.40
2018-06-09T23:34:27.081Z,21.57
2018-06-09T23:36:56.047Z,22.50
2018-06-09T23:39:24.743Z,21.30
2018-06-09T23:41:53.613Z,20.90
2018-06-09T23:44:22.540Z,24.80
2018-06-09T23:46:51.478Z,22.17
2018-06-09T23:49:20.434Z,25.67
2018-06-09T23:51:49.676Z,22.13
2018-06-09T23:54:18.626Z,22.33
2018-06-09T23:56:47.901Z,21.43
2018-06-09T23:59:16.828Z,19.83
